Time;durP1;ratioP1;P1;durP2;ratioP2;P2;SDS_P1;SDS_P2;PMS_P1;PMS_P2;Temp;Humidity;BMP_temperature;BMP_pressure;BME280_temperature;BME280_humidity;BME280_pressure;Samples;Min_cycle;Max_cycle;Signal;HPM_P1;HPM_P2
2023/10/28 00:01:35;;;;;;;0.38;0.35;;;;;;;;;;5092983;28;20025;-78
2023/10/28 00:04:05;;;;;;;0.32;0.32;;;;;;;;;;5092193;28;20021;-77
2023/10/28 00:06:31;;;;;;;3.10;0.63;;;;;;;;;;5092066;28;20016;-77
2023/10/28 00:08:57;;;;;;;0.38;0.30;;;;;;;;;;5091886;28;20115;-76
2023/10/28 00:11:23;;;;;;;1.95;0.75;;;;;;;;;;5091058;28;20103;-78
2023/10/28 00:13:50;;;;;;;1.10;0.60;;;;;;;;;;5089792;28;20024;-78
2023/10/28 00:16:16;;;;;;;0.55;0.55;;;;;;;;;;5089361;28;20024;-79
2023/10/28 00:18:42;;;;;;;0.50;0.50;;;;;;;;;;5088730;28;20024;-77
2023/10/28 00:21:09;;;;;;;1.25;0.50;;;;;;;;;;5086949;28;20024;-77
2023/10/28 00:23:36;;;;;;;0.70;0.40;;;;;;;;;;5086794;28;20025;-78
2023/10/28 00:26:03;;;;;;;0.63;0.40;;;;;;;;;;5086886;28;20096;-78
2023/10/28 00:28:32;;;;;;;1.00;0.43;;;;;;;;;;5083112;28;20044;-78
2023/10/28 00:30:59;;;;;;;0.50;0.40;;;;;;;;;;5082555;28;20048;-78
2023/10/28 00:33:26;;;;;;;1.38;0.40;;;;;;;;;;5064022;28;20497;-78
2023/10/28 00:35:52;;;;;;;0.28;0.22;;;;;;;;;;5080779;28;20103;-78
2023/10/28 00:38:18;;;;;;;0.40;0.40;;;;;;;;;;5062917;28;20394;-79
2023/10/28 00:40:44;;;;;;;1.65;0.32;;;;;;;;;;5066023;28;20122;-79
2023/10/28 00:43:10;;;;;;;0.40;0.40;;;;;;;;;;5086872;28;20050;-80
2023/10/28 00:45:37;;;;;;;0.47;0.30;;;;;;;;;;5070220;28;20451;-78
2023/10/28 00:48:04;;;;;;;0.65;0.35;;;;;;;;;;5087262;28;20024;-78
2023/10/28 00:50:30;;;;;;;1.08;0.40;;;;;;;;;;5087053;28;20021;-77
2023/10/28 00:52:59;;;;;;;1.58;0.50;;;;;;;;;;5086072;28;20024;-77
2023/10/28 00:55:26;;;;;;;0.20;0.20;;;;;;;;;;5086856;28;20021;-77
2023/10/28 00:57:52;;;;;;;0.20;0.20;;;;;;;;;;5095557;28;20042;-77
2023/10/28 01:00:20;;;;;;;0.70;0.40;;;;;;;;;;5090226;28;20046;-78
2023/10/28 01:02:46;;;;;;;0.38;0.20;;;;;;;;;;5106931;28;20024;-78
2023/10/28 01:05:13;;;;;;;0.35;0.30;;;;;;;;;;5082233;28;20449;-78
2023/10/28 01:07:40;;;;;;;0.32;0.25;;;;;;;;;;5085987;28;20100;-78
2023/10/28 01:10:06;;;;;;;0.65;0.20;;;;;;;;;;5069105;28;20021;-78
2023/10/28 01:12:32;;;;;;;0.50;0.47;;;;;;;;;;5086809;28;20020;-78
2023/10/28 01:14:58;;;;;;;0.10;0.10;;;;;;;;;;5069023;28;20025;-77
2023/10/28 01:17:27;;;;;;;0.30;0.30;;;;;;;;;;5087071;28;20098;-79
2023/10/28 01:19:53;;;;;;;0.20;0.10;;;;;;;;;;5086375;28;20097;-78
2023/10/28 01:22:21;;;;;;;0.15;0.15;;;;;;;;;;5085540;28;20116;-77
2023/10/28 01:24:49;;;;;;;0.63;0.30;;;;;;;;;;5068063;28;20042;-77
2023/10/28 01:27:15;;;;;;;0.17;0.17;;;;;;;;;;5099713;28;20039;-77
2023/10/28 01:29:41;;;;;;;0.65;0.20;;;;;;;;;;5090251;28;20046;-79
2023/10/28 01:32:07;;;;;;;0.25;0.20;;;;;;;;;;5086651;28;20036;-77
2023/10/28 01:34:33;;;;;;;0.47;0.47;;;;;;;;;;5087041;28;20021;-78
2023/10/28 01:36:59;;;;;;;0.45;0.40;;;;;;;;;;5087065;28;20103;-77
2023/10/28 01:39:26;;;;;;;0.20;0.20;;;;;;;;;;5069910;28;20020;-78
2023/10/28 01:41:52;;;;;;;0.10;0.10;;;;;;;;;;5076952;28;20391;-78
2023/10/28 01:44:18;;;;;;;0.28;0.28;;;;;;;;;;5088521;28;20054;-78
2023/10/28 01:46:45;;;;;;;0.45;0.30;;;;;;;;;;5089052;28;20066;-78
2023/10/28 01:49:11;;;;;;;0.30;0.20;;;;;;;;;;5089917;28;20048;-79
2023/10/28 01:51:37;;;;;;;0.43;0.20;;;;;;;;;;5089698;28;20025;-78
2023/10/28 01:54:04;;;;;;;0.88;0.40;;;;;;;;;;5088308;28;20103;-78
2023/10/28 01:56:30;;;;;;;0.45;0.13;;;;;;;;;;5087391;28;20016;-79
2023/10/28 01:58:56;;;;;;;0.65;0.20;;;;;;;;;;5087526;28;20050;-79
2023/10/28 02:01:25;;;;;;;0.45;0.35;;;;;;;;;;5089437;28;20029;-77
2023/10/28 02:03:51;;;;;;;0.10;0.10;;;;;;;;;;5072034;28;20111;-77
2023/10/28 02:06:17;;;;;;;0.10;0.10;;;;;;;;;;5089817;28;20058;-78
2023/10/28 02:08:44;;;;;;;0.30;0.20;;;;;;;;;;5092567;28;20023;-78
2023/10/28 02:11:10;;;;;;;0.20;0.20;;;;;;;;;;5093767;28;20024;-78
2023/10/28 02:13:36;;;;;;;0.20;0.13;;;;;;;;;;5075697;28;20025;-78
2023/10/28 02:16:02;;;;;;;0.52;0.25;;;;;;;;;;5093618;28;20024;-78
2023/10/28 02:18:29;;;;;;;0.75;0.17;;;;;;;;;;5075516;28;20025;-77
2023/10/28 02:20:55;;;;;;;0.20;0.20;;;;;;;;;;5076937;28;20043;-78
2023/10/28 02:23:21;;;;;;;0.10;0.10;;;;;;;;;;5093673;28;20403;-77
2023/10/28 02:25:47;;;;;;;0.10;0.10;;;;;;;;;;5092817;28;20025;-77
2023/10/28 02:28:13;;;;;;;0.75;0.20;;;;;;;;;;5090749;28;20021;-77
2023/10/28 02:30:40;;;;;;;0.10;0.10;;;;;;;;;;5091207;28;20021;-76
2023/10/28 02:33:07;;;;;;;0.20;0.20;;;;;;;;;;5091526;28;20016;-76
2023/10/28 02:35:34;;;;;;;0.20;0.20;;;;;;;;;;5091613;28;20020;-77
2023/10/28 02:38:00;;;;;;;0.65;0.13;;;;;;;;;;5073180;28;20028;-76
2023/10/28 02:40:26;;;;;;;1.10;0.35;;;;;;;;;;5092368;28;20036;-77
2023/10/28 02:42:52;;;;;;;0.93;0.20;;;;;;;;;;5091948;28;20024;-79
2023/10/28 02:45:18;;;;;;;0.10;0.10;;;;;;;;;;5091101;28;20032;-77
2023/10/28 02:47:44;;;;;;;0.57;0.20;;;;;;;;;;5090383;28;20036;-78
2023/10/28 02:50:12;;;;;;;0.75;0.40;;;;;;;;;;5089082;28;20039;-78
2023/10/28 02:52:38;;;;;;;1.00;0.38;;;;;;;;;;5072769;28;20036;-79
2023/10/28 02:55:05;;;;;;;0.25;0.20;;;;;;;;;;5092125;28;20024;-78
2023/10/28 02:57:35;;;;;;;0.10;0.10;;;;;;;;;;5098136;28;20048;-77
2023/10/28 03:00:04;;;;;;;0.22;0.15;;;;;;;;;;5093519;28;20084;-77
2023/10/28 03:02:30;;;;;;;0.45;0.20;;;;;;;;;;5091965;28;20017;-77
2023/10/28 03:04:56;;;;;;;1.38;0.35;;;;;;;;;;5090921;28;20029;-77
2023/10/28 03:07:23;;;;;;;0.80;0.52;;;;;;;;;;5073334;28;20052;-77
2023/10/28 03:09:49;;;;;;;0.93;0.40;;;;;;;;;;5092719;28;20088;-77
2023/10/28 03:12:15;;;;;;;0.30;0.10;;;;;;;;;;5073803;28;20048;-77
2023/10/28 03:14:41;;;;;;;0.40;0.20;;;;;;;;;;5097429;28;20016;-76
2023/10/28 03:17:08;;;;;;;0.20;0.20;;;;;;;;;;5094038;28;20055;-75
2023/10/28 03:19:35;;;;;;;0.40;0.20;;;;;;;;;;5082051;28;20063;-75
2023/10/28 03:22:01;;;;;;;0.57;0.30;;;;;;;;;;5080251;28;20033;-76
2023/10/28 03:24:28;;;;;;;0.60;0.28;;;;;;;;;;5082182;28;20036;-76
2023/10/28 03:26:55;;;;;;;0.30;0.15;;;;;;;;;;5084582;28;20032;-76
2023/10/28 03:29:21;;;;;;;1.33;0.15;;;;;;;;;;5079791;28;20027;-77
2023/10/28 03:31:47;;;;;;;0.93;0.30;;;;;;;;;;5067846;28;20500;-77
2023/10/28 03:34:13;;;;;;;0.57;0.20;;;;;;;;;;5076034;28;20042;-75
2023/10/28 03:36:40;;;;;;;0.52;0.32;;;;;;;;;;5075688;28;20013;-74
2023/10/28 03:39:07;;;;;;;0.20;0.20;;;;;;;;;;5057317;28;20024;-76
2023/10/28 03:41:33;;;;;;;0.20;0.20;;;;;;;;;;5074947;28;20020;-75
2023/10/28 03:44:00;;;;;;;0.20;0.10;;;;;;;;;;5074487;28;20029;-74
2023/10/28 03:46:26;;;;;;;0.60;0.30;;;;;;;;;;5074082;28;20393;-75
2023/10/28 03:48:52;;;;;;;0.28;0.28;;;;;;;;;;5074184;28;20073;-74
2023/10/28 03:51:18;;;;;;;0.30;0.22;;;;;;;;;;5073570;28;20029;-74
2023/10/28 03:53:45;;;;;;;0.60;0.20;;;;;;;;;;5055573;28;20050;-73
2023/10/28 03:56:11;;;;;;;0.68;0.20;;;;;;;;;;5073897;28;20379;-76
2023/10/28 03:58:37;;;;;;;1.02;0.40;;;;;;;;;;5077087;28;20021;-74
2023/10/28 04:01:03;;;;;;;0.40;0.20;;;;;;;;;;5076683;28;20032;-74
2023/10/28 04:03:29;;;;;;;1.02;0.20;;;;;;;;;;5058995;28;20028;-74
2023/10/28 04:05:55;;;;;;;0.10;0.10;;;;;;;;;;5076686;28;20070;-75
2023/10/28 04:08:21;;;;;;;1.02;0.35;;;;;;;;;;5076245;28;20021;-75
2023/10/28 04:10:47;;;;;;;0.63;0.25;;;;;;;;;;5077172;28;20032;-74
2023/10/28 04:13:14;;;;;;;1.00;0.40;;;;;;;;;;5077312;28;20023;-75
2023/10/28 04:15:40;;;;;;;0.35;0.30;;;;;;;;;;5075991;28;20405;-74
2023/10/28 04:18:06;;;;;;;1.73;0.47;;;;;;;;;;5076912;28;20028;-75
2023/10/28 04:20:33;;;;;;;0.35;0.30;;;;;;;;;;5077865;28;20028;-75
2023/10/28 04:22:59;;;;;;;0.20;0.20;;;;;;;;;;5077416;28;20067;-75
2023/10/28 04:25:27;;;;;;;0.20;0.20;;;;;;;;;;5079410;28;20025;-74
2023/10/28 04:27:53;;;;;;;0.85;0.20;;;;;;;;;;5079276;28;20020;-75
2023/10/28 04:30:19;;;;;;;0.45;0.30;;;;;;;;;;5079372;28;20545;-75
2023/10/28 04:32:45;;;;;;;0.63;0.40;;;;;;;;;;5077307;28;20021;-74
2023/10/28 04:35:11;;;;;;;0.45;0.30;;;;;;;;;;5077960;28;20021;-74
2023/10/28 04:37:37;;;;;;;0.55;0.25;;;;;;;;;;5077951;28;20021;-73
2023/10/28 04:40:05;;;;;;;1.08;0.20;;;;;;;;;;5084307;28;20023;-73
2023/10/28 04:42:31;;;;;;;0.95;0.20;;;;;;;;;;5089874;28;20024;-76
2023/10/28 04:44:58;;;;;;;0.50;0.20;;;;;;;;;;5076950;28;20393;-74
2023/10/28 04:47:27;;;;;;;0.73;0.30;;;;;;;;;;5076043;28;20052;-73
2023/10/28 04:49:53;;;;;;;0.20;0.20;;;;;;;;;;5056823;28;20033;-76
2023/10/28 04:52:20;;;;;;;1.50;0.22;;;;;;;;;;5056756;28;20511;-75
2023/10/28 04:54:46;;;;;;;0.30;0.20;;;;;;;;;;5056807;28;20086;-75
2023/10/28 04:57:12;;;;;;;1.10;0.32;;;;;;;;;;5076145;28;20037;-75
2023/10/28 04:59:39;;;;;;;0.30;0.20;;;;;;;;;;5075089;28;20069;-75
2023/10/28 05:02:05;;;;;;;0.50;0.20;;;;;;;;;;5075643;28;20021;-75
2023/10/28 05:04:32;;;;;;;0.20;0.20;;;;;;;;;;5076473;28;20054;-74
2023/10/28 05:06:58;;;;;;;0.17;0.13;;;;;;;;;;5077136;28;20086;-74
2023/10/28 05:09:24;;;;;;;0.25;0.17;;;;;;;;;;5058653;28;20021;-74
2023/10/28 05:11:54;;;;;;;0.65;0.50;;;;;;;;;;5076637;28;20024;-75
2023/10/28 05:14:20;;;;;;;0.40;0.20;;;;;;;;;;5077555;28;20021;-74
2023/10/28 05:16:47;;;;;;;0.28;0.17;;;;;;;;;;5076363;28;20029;-74
2023/10/28 05:19:13;;;;;;;0.55;0.30;;;;;;;;;;5077141;28;20058;-76
2023/10/28 05:21:39;;;;;;;0.10;0.10;;;;;;;;;;5076420;28;20082;-74
2023/10/28 05:24:05;;;;;;;0.20;0.20;;;;;;;;;;5058139;28;20394;-76
2023/10/28 05:26:32;;;;;;;1.08;0.15;;;;;;;;;;5076605;28;20394;-76
2023/10/28 05:28:58;;;;;;;0.43;0.43;;;;;;;;;;5075948;28;20436;-75
2023/10/28 05:31:27;;;;;;;0.15;0.15;;;;;;;;;;5076372;28;20103;-75
2023/10/28 05:33:54;;;;;;;0.10;0.10;;;;;;;;;;5058175;28;20395;-75
2023/10/28 05:36:20;;;;;;;0.22;0.20;;;;;;;;;;5075765;28;20045;-74
2023/10/28 05:38:46;;;;;;;0.10;0.10;;;;;;;;;;5075458;28;20032;-74
2023/10/28 05:41:12;;;;;;;0.00;0.00;;;;;;;;;;5075844;28;20494;-74
2023/10/28 05:43:39;;;;;;;0.10;0.10;;;;;;;;;;5075917;28;20029;-73
2023/10/28 05:46:05;;;;;;;0.88;0.20;;;;;;;;;;5075621;28;20040;-74
2023/10/28 05:48:32;;;;;;;0.60;0.20;;;;;;;;;;5074888;28;20082;-75
2023/10/28 05:50:59;;;;;;;0.25;0.13;;;;;;;;;;5075304;28;20021;-74
2023/10/28 05:53:25;;;;;;;0.20;0.17;;;;;;;;;;5075739;28;20025;-75
2023/10/28 05:55:52;;;;;;;0.55;0.32;;;;;;;;;;5075636;28;20028;-75
2023/10/28 05:58:18;;;;;;;0.35;0.28;;;;;;;;;;5075111;28;20046;-76
2023/10/28 06:00:44;;;;;;;0.10;0.10;;;;;;;;;;5075137;28;20399;-75
2023/10/28 06:03:12;;;;;;;0.10;0.10;;;;;;;;;;5072653;28;20475;-75
2023/10/28 06:05:38;;;;;;;0.38;0.20;;;;;;;;;;5072409;28;20462;-76
2023/10/28 06:08:04;;;;;;;0.17;0.17;;;;;;;;;;5072044;28;20028;-75
2023/10/28 06:10:31;;;;;;;0.25;0.20;;;;;;;;;;5072820;28;20111;-74
2023/10/28 06:12:57;;;;;;;0.22;0.22;;;;;;;;;;5054498;28;20495;-74
2023/10/28 06:15:24;;;;;;;0.20;0.20;;;;;;;;;;5073495;28;20399;-75
2023/10/28 06:17:51;;;;;;;0.20;0.20;;;;;;;;;;5072165;28;20027;-76
2023/10/28 06:20:17;;;;;;;0.30;0.25;;;;;;;;;;5072224;28;20037;-76
2023/10/28 06:22:43;;;;;;;0.20;0.20;;;;;;;;;;5072199;28;20029;-74
2023/10/28 06:25:09;;;;;;;0.20;0.20;;;;;;;;;;5053934;28;20100;-74
2023/10/28 06:27:35;;;;;;;0.32;0.10;;;;;;;;;;5075171;28;20518;-72
2023/10/28 06:30:02;;;;;;;0.40;0.40;;;;;;;;;;5076229;28;20052;-75
2023/10/28 06:32:28;;;;;;;0.32;0.22;;;;;;;;;;5075462;28;20024;-75
2023/10/28 06:34:54;;;;;;;0.38;0.10;;;;;;;;;;5055780;28;20025;-75
2023/10/28 06:37:21;;;;;;;0.10;0.10;;;;;;;;;;5073493;28;20032;-75
2023/10/28 06:39:47;;;;;;;0.20;0.20;;;;;;;;;;5078867;28;20048;-75
2023/10/28 06:42:13;;;;;;;0.20;0.20;;;;;;;;;;5075789;28;20639;-75
2023/10/28 06:44:40;;;;;;;0.10;0.10;;;;;;;;;;5074685;28;20371;-75
2023/10/28 06:47:06;;;;;;;0.30;0.20;;;;;;;;;;5073582;28;20030;-75
2023/10/28 06:49:32;;;;;;;0.10;0.10;;;;;;;;;;5073217;28;20028;-75
2023/10/28 06:51:58;;;;;;;0.30;0.20;;;;;;;;;;5073946;28;20017;-75
2023/10/28 06:54:24;;;;;;;0.17;0.17;;;;;;;;;;5054785;28;20029;-76
2023/10/28 06:56:51;;;;;;;0.10;0.10;;;;;;;;;;5075449;28;20036;-77
2023/10/28 06:59:17;;;;;;;0.15;0.15;;;;;;;;;;5075425;28;20066;-76
2023/10/28 07:01:44;;;;;;;0.40;0.20;;;;;;;;;;5076066;28;20410;-74
2023/10/28 07:04:13;;;;;;;0.10;0.10;;;;;;;;;;5076200;28;20039;-76
2023/10/28 07:06:39;;;;;;;0.00;0.00;;;;;;;;;;5075663;28;20605;-76
2023/10/28 07:09:05;;;;;;;3.53;0.73;;;;;;;;;;5075668;28;20119;-75
2023/10/28 07:11:32;;;;;;;0.20;0.20;;;;;;;;;;5075330;28;20028;-75
2023/10/28 07:13:58;;;;;;;0.20;0.20;;;;;;;;;;5075706;28;20150;-76
2023/10/28 07:16:24;;;;;;;0.30;0.22;;;;;;;;;;5056897;28;20487;-75
2023/10/28 07:18:50;;;;;;;0.13;0.10;;;;;;;;;;5057410;28;20035;-75
2023/10/28 07:21:16;;;;;;;1.08;0.30;;;;;;;;;;5076025;28;20039;-75
2023/10/28 07:23:42;;;;;;;0.30;0.30;;;;;;;;;;5079628;28;20090;-74
2023/10/28 07:26:10;;;;;;;0.68;0.20;;;;;;;;;;5079649;28;20029;-74
2023/10/28 07:28:37;;;;;;;0.30;0.20;;;;;;;;;;5080247;28;20026;-75
2023/10/28 07:31:04;;;;;;;0.60;0.30;;;;;;;;;;5081059;28;20119;-73
2023/10/28 07:33:30;;;;;;;0.93;0.50;;;;;;;;;;5081915;28;20020;-74
2023/10/28 07:35:57;;;;;;;0.30;0.30;;;;;;;;;;5082423;28;20084;-75
2023/10/28 07:38:23;;;;;;;0.30;0.30;;;;;;;;;;5076404;28;20466;-75
2023/10/28 07:40:49;;;;;;;0.30;0.30;;;;;;;;;;5076145;28;20027;-74
2023/10/28 07:43:19;;;;;;;0.20;0.20;;;;;;;;;;5075003;28;20020;-74
2023/10/28 07:45:46;;;;;;;0.20;0.20;;;;;;;;;;5075086;28;20055;-74
2023/10/28 07:48:12;;;;;;;0.40;0.40;;;;;;;;;;5056278;28;20025;-75
2023/10/28 07:50:44;;;;;;;0.77;0.40;;;;;;;;;;5057385;28;20028;-76
2023/10/28 07:53:11;;;;;;;0.32;0.30;;;;;;;;;;5074228;28;20025;-74
2023/10/28 07:55:38;;;;;;;0.28;0.28;;;;;;;;;;5056173;28;20522;-76
2023/10/28 07:58:05;;;;;;;0.35;0.20;;;;;;;;;;5073232;28;20039;-75
2023/10/28 08:00:31;;;;;;;0.30;0.30;;;;;;;;;;5074298;28;20104;-75
2023/10/28 08:02:57;;;;;;;0.45;0.20;;;;;;;;;;5073453;28;20037;-75
2023/10/28 08:05:24;;;;;;;1.05;0.43;;;;;;;;;;5074922;28;20391;-74
2023/10/28 08:07:52;;;;;;;0.47;0.47;;;;;;;;;;5074275;28;20621;-75
2023/10/28 08:10:22;;;;;;;0.45;0.45;;;;;;;;;;5055883;28;20255;-76
2023/10/28 08:12:52;;;;;;;0.70;0.65;;;;;;;;;;5073447;28;20028;-75
2023/10/28 08:15:20;;;;;;;0.65;0.63;;;;;;;;;;5073550;28;20045;-75
2023/10/28 08:17:46;;;;;;;0.50;0.40;;;;;;;;;;5073675;28;20437;-75
2023/10/28 08:20:14;;;;;;;0.38;0.35;;;;;;;;;;5073617;28;20052;-75
2023/10/28 08:22:40;;;;;;;0.40;0.40;;;;;;;;;;5073329;28;20047;-76
2023/10/28 08:25:08;;;;;;;0.70;0.43;;;;;;;;;;5073737;28;20024;-75
2023/10/28 08:27:34;;;;;;;0.43;0.40;;;;;;;;;;5073180;28;20101;-74
2023/10/28 08:30:01;;;;;;;0.88;0.40;;;;;;;;;;5073255;28;20374;-75
2023/10/28 08:32:30;;;;;;;0.28;0.20;;;;;;;;;;5072999;28;20020;-75
2023/10/28 08:34:57;;;;;;;0.63;0.45;;;;;;;;;;5073471;28;20025;-76
2023/10/28 08:37:23;;;;;;;0.30;0.30;;;;;;;;;;5072542;28;20020;-75
2023/10/28 08:39:49;;;;;;;0.65;0.28;;;;;;;;;;5073192;28;20025;-75
2023/10/28 08:42:17;;;;;;;0.38;0.38;;;;;;;;;;5073274;28;20360;-74
2023/10/28 08:44:43;;;;;;;2.30;0.40;;;;;;;;;;5073104;28;20403;-76
2023/10/28 08:47:09;;;;;;;0.70;0.70;;;;;;;;;;5072274;28;20049;-76
2023/10/28 08:49:40;;;;;;;0.40;0.40;;;;;;;;;;5073234;28;20024;-74
2023/10/28 08:52:07;;;;;;;1.08;0.30;;;;;;;;;;5054968;28;20024;-75
2023/10/28 08:54:35;;;;;;;2.10;0.40;;;;;;;;;;5072892;28;20033;-75
2023/10/28 08:57:03;;;;;;;2.05;0.50;;;;;;;;;;5072217;28;20046;-75
2023/10/28 08:59:29;;;;;;;0.90;0.50;;;;;;;;;;5054493;28;20075;-74
2023/10/28 09:01:57;;;;;;;0.52;0.40;;;;;;;;;;5073246;28;20086;-76
2023/10/28 09:04:23;;;;;;;1.25;0.52;;;;;;;;;;5072659;28;20043;-76
2023/10/28 09:06:53;;;;;;;0.70;0.30;;;;;;;;;;5072753;28;20169;-76
2023/10/28 09:09:21;;;;;;;0.63;0.47;;;;;;;;;;5072551;28;20467;-76
2023/10/28 09:11:47;;;;;;;0.88;0.30;;;;;;;;;;5072870;28;20112;-75
2023/10/28 09:14:14;;;;;;;1.55;0.60;;;;;;;;;;5072718;28;20021;-75
2023/10/28 09:16:40;;;;;;;0.57;0.40;;;;;;;;;;5072641;28;20027;-75
2023/10/28 09:19:08;;;;;;;0.82;0.50;;;;;;;;;;5071990;28;20017;-75
2023/10/28 09:21:36;;;;;;;0.73;0.30;;;;;;;;;;5072524;28;20021;-75
2023/10/28 09:24:02;;;;;;;1.38;0.50;;;;;;;;;;5072669;28;20498;-74
2023/10/28 09:26:29;;;;;;;1.33;0.55;;;;;;;;;;5072343;28;20077;-75
2023/10/28 09:28:58;;;;;;;0.95;0.88;;;;;;;;;;5089465;28;20068;-76
2023/10/28 09:31:28;;;;;;;0.70;0.52;;;;;;;;;;5092834;28;20023;-76
2023/10/28 09:33:54;;;;;;;0.40;0.40;;;;;;;;;;5094253;28;20027;-76
2023/10/28 09:36:21;;;;;;;1.73;0.73;;;;;;;;;;5076041;28;20170;-76
2023/10/28 09:38:47;;;;;;;1.10;0.45;;;;;;;;;;5073113;28;20356;-75
2023/10/28 09:41:14;;;;;;;1.08;0.52;;;;;;;;;;5072112;28;20024;-76
2023/10/28 09:43:40;;;;;;;1.20;0.68;;;;;;;;;;5072561;28;20053;-75
2023/10/28 09:46:07;;;;;;;1.27;0.50;;;;;;;;;;5072221;28;20026;-74
2023/10/28 09:48:38;;;;;;;0.95;0.35;;;;;;;;;;5072484;28;20036;-75
2023/10/28 09:51:05;;;;;;;2.03;0.60;;;;;;;;;;5072282;28;20031;-76
2023/10/28 09:53:33;;;;;;;0.70;0.57;;;;;;;;;;5072050;28;20021;-75
2023/10/28 09:56:02;;;;;;;0.60;0.40;;;;;;;;;;5071701;28;20570;-74
2023/10/28 09:58:31;;;;;;;3.20;0.50;;;;;;;;;;5071153;28;20497;-76
2023/10/28 10:01:20;;;;;;;2.78;0.80;;;;;;;;;;5071824;28;20033;-76
2023/10/28 10:04:01;;;;;;;1.85;0.50;;;;;;;;;;5072128;28;20021;-76
2023/10/28 10:06:28;;;;;;;0.60;0.45;;;;;;;;;;5071761;28;20060;-76
2023/10/28 10:08:55;;;;;;;0.63;0.40;;;;;;;;;;5071841;28;20025;-75
2023/10/28 10:11:25;;;;;;;0.98;0.60;;;;;;;;;;5054154;28;20060;-75
2023/10/28 10:13:52;;;;;;;0.43;0.43;;;;;;;;;;5071928;28;20020;-76
2023/10/28 10:16:30;;;;;;;0.90;0.40;;;;;;;;;;5071415;28;20023;-75
2023/10/28 10:18:58;;;;;;;0.75;0.40;;;;;;;;;;5071652;28;20024;-74
2023/10/28 10:21:30;;;;;;;1.02;0.63;;;;;;;;;;5072066;28;20020;-76
2023/10/28 10:23:56;;;;;;;0.88;0.35;;;;;;;;;;5071599;28;20454;-74
2023/10/28 10:26:26;;;;;;;0.50;0.50;;;;;;;;;;5071461;28;20017;-76
2023/10/28 10:28:58;;;;;;;1.20;0.80;;;;;;;;;;5073082;28;20378;-76
2023/10/28 10:31:28;;;;;;;1.67;0.50;;;;;;;;;;5075473;28;20437;-76
2023/10/28 10:34:12;;;;;;;1.35;0.60;;;;;;;;;;5075551;28;20017;-75
2023/10/28 10:36:42;;;;;;;1.27;0.70;;;;;;;;;;5074783;28;20025;-75
2023/10/28 10:39:14;;;;;;;1.10;0.40;;;;;;;;;;5075327;28;20491;-77
2023/10/28 10:41:41;;;;;;;0.65;0.38;;;;;;;;;;5076309;28;20024;-75
2023/10/28 10:44:23;;;;;;;0.80;0.43;;;;;;;;;;5075928;28;20510;-77
2023/10/28 10:46:49;;;;;;;1.73;0.75;;;;;;;;;;5074873;28;20028;-74
2023/10/28 10:49:16;;;;;;;0.77;0.50;;;;;;;;;;5074835;28;20449;-76
2023/10/28 10:51:44;;;;;;;1.73;0.70;;;;;;;;;;5074966;28;20070;-75
2023/10/28 10:54:10;;;;;;;1.48;0.75;;;;;;;;;;5074328;28;20051;-76
2023/10/28 10:56:36;;;;;;;1.80;0.95;;;;;;;;;;5074706;28;20362;-77
2023/10/28 10:59:05;;;;;;;1.88;0.70;;;;;;;;;;5074817;28;20024;-76
2023/10/28 11:01:31;;;;;;;0.55;0.40;;;;;;;;;;5057595;28;20044;-76
2023/10/28 11:03:58;;;;;;;1.55;0.57;;;;;;;;;;5076017;28;20545;-78
2023/10/28 11:06:24;;;;;;;1.73;0.70;;;;;;;;;;5075254;28;20086;-75
2023/10/28 11:08:50;;;;;;;1.02;0.55;;;;;;;;;;5074432;28;20025;-76
2023/10/28 11:11:16;;;;;;;1.30;0.70;;;;;;;;;;5077729;28;20056;-75
2023/10/28 11:13:44;;;;;;;1.08;0.45;;;;;;;;;;5076062;28;20017;-75
2023/10/28 11:16:22;;;;;;;0.70;0.40;;;;;;;;;;5075583;28;20383;-76
2023/10/28 11:18:49;;;;;;;1.88;0.70;;;;;;;;;;5074698;28;20025;-76
2023/10/28 11:21:16;;;;;;;1.83;0.95;;;;;;;;;;5076045;28;20432;-76
2023/10/28 11:23:43;;;;;;;2.30;1.05;;;;;;;;;;5076267;28;20554;-76
2023/10/28 11:26:09;;;;;;;1.83;0.77;;;;;;;;;;5075362;28;20107;-76
2023/10/28 11:28:38;;;;;;;0.95;0.68;;;;;;;;;;5074550;28;20090;-77
2023/10/28 11:31:05;;;;;;;1.40;0.93;;;;;;;;;;5075299;28;20494;-76
2023/10/28 11:33:33;;;;;;;1.88;0.52;;;;;;;;;;5075095;28;20021;-76
2023/10/28 11:35:59;;;;;;;1.58;0.73;;;;;;;;;;5075104;28;20024;-77
2023/10/28 11:38:25;;;;;;;1.80;0.60;;;;;;;;;;5057089;28;20024;-76
2023/10/28 11:41:21;;;;;;;1.15;0.73;;;;;;;;;;5074056;28;20029;-75
2023/10/28 11:43:49;;;;;;;1.55;0.65;;;;;;;;;;5054514;28;20351;-75
2023/10/28 11:46:16;;;;;;;1.65;0.85;;;;;;;;;;5074459;28;20409;-75
2023/10/28 11:48:45;;;;;;;0.95;0.70;;;;;;;;;;5074419;28;20028;-75
2023/10/28 11:51:12;;;;;;;3.85;1.33;;;;;;;;;;5074102;28;20120;-76
2023/10/28 11:53:44;;;;;;;1.95;1.00;;;;;;;;;;5074608;28;20040;-75
2023/10/28 11:56:10;;;;;;;1.25;0.90;;;;;;;;;;5074955;28;20028;-76
2023/10/28 11:58:36;;;;;;;0.98;0.63;;;;;;;;;;5074225;28;20498;-76
2023/10/28 12:01:02;;;;;;;1.42;0.80;;;;;;;;;;5074957;28;20877;-76
2023/10/28 12:03:28;;;;;;;1.55;0.85;;;;;;;;;;5074268;28;20028;-76
2023/10/28 12:05:54;;;;;;;1.10;0.80;;;;;;;;;;5074395;28;20028;-78
2023/10/28 12:08:20;;;;;;;2.42;0.73;;;;;;;;;;5073699;28;20478;-76
2023/10/28 12:10:46;;;;;;;2.22;0.93;;;;;;;;;;5073657;28;20103;-76
2023/10/28 12:13:13;;;;;;;1.23;0.65;;;;;;;;;;5073543;28;20017;-76
2023/10/28 12:15:40;;;;;;;4.70;1.10;;;;;;;;;;5073998;28;20464;-76
2023/10/28 12:18:09;;;;;;;2.47;0.63;;;;;;;;;;5077550;28;20017;-76
2023/10/28 12:20:35;;;;;;;2.85;1.00;;;;;;;;;;5078271;28;20510;-76
2023/10/28 12:23:02;;;;;;;3.13;0.80;;;;;;;;;;5076745;28;20036;-75
2023/10/28 12:25:28;;;;;;;1.17;0.60;;;;;;;;;;5073656;28;20031;-76
2023/10/28 12:27:55;;;;;;;2.35;0.90;;;;;;;;;;5081459;28;20051;-77
2023/10/28 12:30:21;;;;;;;3.10;1.00;;;;;;;;;;5076076;28;20029;-77
2023/10/28 12:32:48;;;;;;;2.28;1.17;;;;;;;;;;5055934;28;20043;-75
2023/10/28 12:35:14;;;;;;;2.65;0.90;;;;;;;;;;5073484;28;20044;-76
2023/10/28 12:37:43;;;;;;;1.65;0.80;;;;;;;;;;5073476;28;20025;-75
2023/10/28 12:40:10;;;;;;;2.25;0.90;;;;;;;;;;5073102;28;20118;-77
2023/10/28 12:42:36;;;;;;;1.17;0.70;;;;;;;;;;5073068;28;20104;-76
2023/10/28 12:45:06;;;;;;;3.35;0.90;;;;;;;;;;5073452;28;20024;-77
2023/10/28 12:47:33;;;;;;;2.90;0.85;;;;;;;;;;5073376;28;20044;-78
2023/10/28 12:50:02;;;;;;;0.93;0.60;;;;;;;;;;5072543;28;20057;-75
2023/10/28 12:52:30;;;;;;;2.20;0.82;;;;;;;;;;5071705;28;20016;-75
2023/10/28 12:54:57;;;;;;;2.08;0.70;;;;;;;;;;5055222;28;20028;-75
2023/10/28 12:57:23;;;;;;;1.42;0.90;;;;;;;;;;5077392;28;20024;-75
2023/10/28 12:59:50;;;;;;;1.27;1.10;;;;;;;;;;5077893;28;20517;-76
2023/10/28 13:02:17;;;;;;;1.90;1.15;;;;;;;;;;5079139;28;20024;-76
2023/10/28 13:04:44;;;;;;;1.85;0.85;;;;;;;;;;5078454;28;20035;-76
2023/10/28 13:07:10;;;;;;;1.85;0.95;;;;;;;;;;5078824;28;20036;-73
2023/10/28 13:09:37;;;;;;;1.00;0.60;;;;;;;;;;5079222;28;20116;-74
2023/10/28 13:12:04;;;;;;;2.22;0.90;;;;;;;;;;5076859;28;20043;-75
2023/10/28 13:14:30;;;;;;;3.60;0.70;;;;;;;;;;5055883;28;20029;-74
2023/10/28 13:16:58;;;;;;;2.83;0.82;;;;;;;;;;5073402;28;20027;-76
2023/10/28 13:19:24;;;;;;;3.55;0.82;;;;;;;;;;5073972;28;20047;-76
2023/10/28 13:21:50;;;;;;;1.80;1.00;;;;;;;;;;5075752;28;20074;-75
2023/10/28 13:24:17;;;;;;;1.33;0.98;;;;;;;;;;5075053;28;20070;-75
2023/10/28 13:26:43;;;;;;;2.13;0.82;;;;;;;;;;5073428;28;20028;-75
2023/10/28 13:29:09;;;;;;;1.42;0.68;;;;;;;;;;5091941;28;20039;-76
2023/10/28 13:31:36;;;;;;;3.92;1.05;;;;;;;;;;5083251;28;20028;-76
2023/10/28 13:34:04;;;;;;;2.00;0.63;;;;;;;;;;5074969;28;20017;-76
2023/10/28 13:36:31;;;;;;;2.47;0.90;;;;;;;;;;5055705;28;20086;-76
2023/10/28 13:38:57;;;;;;;2.08;0.80;;;;;;;;;;5073005;28;20024;-76
2023/10/28 13:41:24;;;;;;;4.03;0.70;;;;;;;;;;5072993;28;20422;-77
2023/10/28 13:43:50;;;;;;;1.50;0.80;;;;;;;;;;5074580;28;20028;-75
2023/10/28 13:46:16;;;;;;;1.77;0.80;;;;;;;;;;5076039;28;20059;-74
2023/10/28 13:48:43;;;;;;;1.13;0.65;;;;;;;;;;5056161;28;20021;-75
2023/10/28 13:51:09;;;;;;;2.03;0.60;;;;;;;;;;5072810;28;20024;-77
2023/10/28 13:53:35;;;;;;;1.23;0.75;;;;;;;;;;5073223;28;20036;-76
2023/10/28 13:56:01;;;;;;;0.70;0.70;;;;;;;;;;5056783;28;20424;-76
2023/10/28 13:58:28;;;;;;;0.82;0.57;;;;;;;;;;5080392;28;20025;-74
2023/10/28 14:00:54;;;;;;;1.67;0.75;;;;;;;;;;5084111;28;20203;-74
2023/10/28 14:03:22;;;;;;;0.55;0.47;;;;;;;;;;5094598;28;20080;-75
2023/10/28 14:05:49;;;;;;;2.22;0.80;;;;;;;;;;5099240;28;20020;-73
2023/10/28 14:08:16;;;;;;;2.65;0.90;;;;;;;;;;5081584;28;20030;-73
2023/10/28 14:10:46;;;;;;;1.45;0.80;;;;;;;;;;5099386;28;20044;-74
2023/10/28 14:13:12;;;;;;;1.95;0.80;;;;;;;;;;5091551;28;20020;-74
2023/10/28 14:15:42;;;;;;;1.70;0.98;;;;;;;;;;5086937;28;20097;-76
2023/10/28 14:18:08;;;;;;;2.03;0.77;;;;;;;;;;5061446;28;20024;-78
2023/10/28 14:20:35;;;;;;;1.35;0.63;;;;;;;;;;5046901;28;20017;-76
2023/10/28 14:23:01;;;;;;;1.80;0.82;;;;;;;;;;5052979;28;20056;-77
2023/10/28 14:25:27;;;;;;;0.82;0.60;;;;;;;;;;5064359;28;20043;-77
2023/10/28 14:27:54;;;;;;;1.85;0.60;;;;;;;;;;5090200;28;20032;-76
2023/10/28 14:30:20;;;;;;;1.10;0.70;;;;;;;;;;5102117;28;20039;-76
2023/10/28 14:32:46;;;;;;;1.23;0.55;;;;;;;;;;5081118;28;20044;-77
2023/10/28 14:35:12;;;;;;;1.63;0.80;;;;;;;;;;5062925;28;20029;-77
2023/10/28 14:37:38;;;;;;;1.08;0.70;;;;;;;;;;5081009;28;20024;-77
2023/10/28 14:40:05;;;;;;;1.40;0.45;;;;;;;;;;5081910;28;20479;-77
2023/10/28 14:42:33;;;;;;;1.80;0.68;;;;;;;;;;5081117;28;20024;-75